Latest Weather Observations for Gove Airport

IDD60801

Issued at 10:21 pm CST Monday 6 July 2020 (issued every 10 minutes, with the page automatically refreshed every 10 minutes)

About weather observations | Map of weather stations | Latest weather observations for NT | Other Formats
Station Details ID: 014508 Name: GOVE AIRPORT Lat: -12.27 Lon: 136.82 Height: 51.6 m
Data from the previous 72 hours. | See also: Recent months at Gove Airport
Date/Time
CST
Temp
°C
App
Temp
°C
Dew
Point
°C
Rel
Hum
%
Delta-T
°C
Wind Press
QNH
hPa
Press
MSL
hPa
Rain since
9am
mm
Dir  Spd
km/h
Gust
km/h
Spd
kts
Gust
kts
06/10:00pm 23.5 22.8 18.6 74 3.1 SE 20 30 11 16 1016.6 1016.3 0.0
06/09:30pm 23.8 22.2 18.4 72 3.4 SE 24 35 13 19 1016.7 1016.4 0.0
06/09:00pm 23.8 22.4 18.7 73 3.2 SE 24 33 13 18 1016.5 1016.2 0.0
06/08:30pm 23.9 22.5 18.8 73 3.2 SE 24 35 13 19 1016.2 1015.9 0.0
06/08:00pm 24.0 22.1 18.6 72 3.4 SE 26 39 14 21 1016.0 1015.7 0.0
06/07:30pm 24.1 23.0 18.7 72 3.4 SE 22 32 12 17 1015.8 1015.5 0.0
06/07:00pm 24.3 23.3 18.9 72 3.4 SE 22 32 12 17 1015.5 1015.2 0.0
06/06:30pm 24.4 23.3 18.6 70 3.7 SE 22 30 12 16 1015.3 1015.0 0.0
06/06:00pm 24.8 23.4 18.7 69 3.9 SE 24 37 13 20 1015.0 1014.7 0.0
06/05:30pm 25.4 24.1 19.1 68 4.0 SE 24 33 13 18 1014.8 1014.5 0.0
06/05:00pm 25.7 23.8 19.3 67 4.1 SE 28 41 15 22 1014.6 1014.3 0.0
06/04:30pm 26.2 23.8 19.1 65 4.6 SE 30 41 16 22 1014.2 1013.9 0.0
06/04:00pm 26.8 24.1 18.4 60 5.4 SE 30 43 16 23 1013.9 1013.6 0.0
06/03:30pm 26.6 24.8 19.5 65 4.6 SE 28 37 15 20 1013.9 1013.6 0.0
06/03:00pm 27.7 25.9 19.5 61 5.3 SE 28 44 15 24 1013.9 1013.6 0.0
06/02:30pm 27.4 24.4 18.7 59 5.6 SE 32 44 17 24 1014.1 1013.8 0.0
06/02:00pm 26.4 23.1 18.0 60 5.3 SE 32 39 17 21 1014.2 1013.9 0.0
06/01:30pm 27.1 23.9 18.1 58 5.7 SE 32 43 17 23 1014.6 1014.3 0.0
06/01:00pm 26.1 22.4 17.5 59 5.4 SE 33 44 18 24 1015.0 1014.7 0.0
06/12:30pm 26.3 23.0 17.9 60 5.3 SE 32 52 17 28 1015.3 1015.0 0.0
06/12:25pm 26.3 22.8 17.9 60 5.3 SE 33 52 18 28 1015.4 1015.1 0.0
06/12:00pm 26.6 23.2 18.2 60 5.3 SE 33 46 18 25 1015.6 1015.3 0.0
06/11:30am 26.7 23.0 18.3 60 5.3 SE 35 48 19 26 1015.9 1015.6 0.0
06/11:00am 26.1 22.3 18.2 61 5.0 SE 35 46 19 25 1016.0 1015.7 0.0
06/10:30am 25.6 21.8 18.0 63 4.8 SE 35 44 19 24 1016.2 1015.9 0.0
06/10:00am 25.8 22.3 18.0 62 4.9 SE 33 46 18 25 1016.4 1016.1 0.0
06/09:30am 25.9 23.4 18.1 62 4.9 SE 28 37 15 20 1016.4 1016.1 0.0
06/09:00am 25.3 21.8 17.5 62 4.9 SE 32 46 17 25 1016.3 1016.0 0.0
06/08:54am 25.3 22.5 17.2 61 5.0 SE 28 46 15 25 1016.3 1016.0 0.0
06/08:30am 24.7 22.8 17.7 65 4.4 SE 24 35 13 19 1016.2 1015.9 0.0
06/08:00am 24.3 21.5 17.3 65 4.4 SE 28 37 15 20 1015.9 1015.6 0.0
06/07:30am 24.0 21.2 17.3 66 4.2 SE 28 39 15 21 1015.6 1015.3 0.0
06/07:00am 23.7 21.7 17.4 68 3.9 SE 24 33 13 18 1015.4 1015.1 0.0
06/06:30am 23.7 22.1 17.4 68 3.9 SE 22 30 12 16 1015.1 1014.8 0.0
06/06:00am 23.7 21.4 16.7 65 4.3 SE 24 33 13 18 1014.7 1014.4 0.0
06/05:30am 24.2 22.3 16.7 63 4.6 SE 22 30 12 16 1014.5 1014.2 0.0
06/05:00am 24.0 20.9 16.5 63 4.6 SE 28 39 15 21 1014.5 1014.2 0.0
06/04:30am 23.8 20.8 16.8 65 4.3 SE 28 46 15 25 1014.5 1014.2 0.0
06/04:28am 23.9 20.9 16.9 65 4.3 SE 28 46 15 25 1014.4 1014.1 0.0
06/04:00am 23.9 22.0 17.6 68 3.9 SE 24 37 13 20 1014.4 1014.1 0.0
06/03:30am 23.6 22.2 18.0 71 3.5 SE 22 28 12 15 1014.4 1014.1 0.0
06/03:00am 23.7 22.3 17.9 70 3.6 SE 22 35 12 19 1014.7 1014.4 0.0
06/02:30am 23.6 22.5 17.8 70 3.6 SSE 20 30 11 16 1014.7 1014.4 0.0
06/02:00am 23.7 22.2 17.7 69 3.7 SSE 22 32 12 17 1015.0 1014.7 0.0
06/01:30am 23.8 22.0 17.8 69 3.7 SSE 24 35 13 19 1015.3 1015.0 0.0
06/01:00am 23.9 21.7 17.9 69 3.8 SE 26 39 14 21 1015.7 1015.4 0.0
06/12:30am 24.0 22.3 18.0 69 3.8 SE 24 33 13 18 1015.9 1015.6 0.0
06/12:00am 24.0 21.9 18.0 69 3.8 SSE 26 41 14 22 1015.6 1015.3 0.0
 
Date/Time
CST
Temp
°C
App
Temp
°C
Dew
Point
°C
Rel
Hum
%
Delta-T
°C
Wind Press
QNH
hPa
Press
MSL
hPa
Rain since
9am
mm
Dir  Spd
km/h
Gust
km/h
Spd
kts
Gust
kts
05/11:30pm 24.0 21.2 17.3 66 4.2 SE 28 39 15 21 1015.7 1015.4 0.0
05/11:00pm 23.8 21.1 17.5 68 3.9 SE 28 41 15 22 1016.0 1015.7 0.0
05/10:30pm 23.9 21.5 17.4 67 4.0 SE 26 41 14 22 1016.0 1015.7 0.0
05/10:00pm 24.3 21.8 17.1 64 4.5 SE 26 39 14 21 1016.0 1015.7 0.0
05/09:30pm 24.4 21.4 16.9 63 4.6 SE 28 41 15 22 1015.9 1015.6 0.0
05/09:00pm 24.3 21.4 17.1 64 4.5 SE 28 39 15 21 1015.8 1015.5 0.0
05/08:30pm 24.0 22.0 17.3 66 4.2 SE 24 33 13 18 1015.5 1015.2 0.0
05/08:00pm 24.1 21.7 17.4 66 4.2 SE 26 37 14 20 1015.2 1014.9 0.0
05/07:30pm 24.2 21.9 17.7 67 4.1 SE 26 37 14 20 1015.0 1014.7 0.0
05/07:00pm 24.1 22.6 17.8 68 3.9 SE 22 30 12 16 1014.8 1014.5 0.0
05/06:30pm 24.2 22.7 17.7 67 4.1 SE 22 28 12 15 1014.5 1014.2 0.0
05/06:00pm 24.7 22.9 17.9 66 4.3 SE 24 35 13 19 1014.1 1013.8 0.0
05/05:30pm 25.4 22.6 18.1 64 4.6 SE 30 41 16 22 1013.6 1013.3 0.0
05/05:14pm 25.4 22.9 18.1 64 4.6 SE 28 46 15 25 1013.4 1013.1 0.0
05/05:00pm 25.5 22.4 18.4 65 4.5 SE 32 41 17 22 1013.3 1013.0 0.0
05/04:30pm 26.6 23.4 18.2 60 5.3 SE 32 41 17 22 1013.2 1012.9 0.0
05/04:00pm 26.6 24.2 19.0 63 4.9 SE 30 43 16 23 1013.2 1012.9 0.0
05/03:30pm 26.9 23.9 18.7 60 5.3 SE 32 46 17 25 1013.1 1012.8 0.0
05/03:00pm 27.1 23.5 17.6 56 6.0 ESE 33 43 18 23 1013.3 1013.0 0.0
05/02:30pm 26.7 23.3 17.8 58 5.6 ESE 32 41 17 22 1013.4 1013.1 0.0
05/02:00pm 27.5 24.2 17.9 55 6.1 ESE 32 44 17 24 1013.5 1013.2 0.0
05/01:30pm 27.1 23.6 17.8 56 5.9 ESE 33 43 18 23 1013.9 1013.6 0.0
05/01:00pm 27.0 23.0 17.5 56 6.0 ESE 35 48 19 26 1014.2 1013.9 0.0
05/12:30pm 27.9 24.8 18.9 58 5.8 ESE 33 44 18 24 1014.7 1014.4 0.0
05/12:00pm 27.5 23.9 18.5 58 5.8 SE 35 52 19 28 1014.9 1014.6 0.0
05/11:55am 28.1 25.2 19.3 58 5.7 ESE 33 52 18 28 1015.0 1014.7 0.0
05/11:30am 27.6 24.5 18.9 59 5.6 ESE 33 44 18 24 1015.2 1014.9 0.0
05/11:25am 28.1 24.7 19.1 58 5.8 ESE 35 54 19 29 1015.3 1015.0 0.0
05/11:00am 27.8 23.9 18.8 58 5.8 ESE 37 52 20 28 1015.4 1015.1 0.0
05/10:46am 27.9 24.8 18.9 58 5.8 ESE 33 52 18 28 1015.6 1015.3 0.0
05/10:30am 27.0 22.4 18.0 58 5.7 ESE 39 54 21 29 1015.8 1015.5 0.0
05/10:16am 27.5 24.0 18.8 59 5.6 SE 35 54 19 29 1015.9 1015.6 0.0
05/10:00am 27.2 23.2 18.5 59 5.6 ESE 37 54 20 29 1016.0 1015.7 0.0
05/09:30am 26.1 22.3 18.0 61 5.1 ESE 35 48 19 26 1016.2 1015.9 0.0
05/09:19am 25.8 22.2 17.2 59 5.4 ESE 32 54 17 29 1016.2 1015.9 0.0
05/09:00am 25.1 21.0 17.3 62 4.9 SE 35 48 19 26 1016.3 1016.0 0.2
05/08:30am 24.9 21.3 17.1 62 4.8 SE 32 44 17 24 1016.0 1015.7 0.2
05/08:00am 24.8 22.0 17.3 63 4.7 SE 28 37 15 20 1015.7 1015.4 0.2
05/07:30am 24.1 21.0 16.6 63 4.6 SE 28 39 15 21 1015.5 1015.2 0.2
05/07:00am 24.0 20.3 16.0 61 4.9 SE 30 44 16 24 1015.1 1014.8 0.2
05/06:41am 24.2 20.6 16.2 61 4.9 SE 30 48 16 26 1014.9 1014.6 0.2
05/06:30am 24.2 19.9 15.9 59 5.0 SE 33 48 18 26 1014.8 1014.5 0.2
05/06:00am 24.3 19.7 16.0 60 5.1 SE 35 46 19 25 1014.9 1014.6 0.2
05/05:37am 24.4 19.6 15.6 58 5.3 SE 35 54 19 29 1014.5 1014.2 0.2
05/05:30am 24.4 19.3 15.9 59 5.2 SE 37 50 20 27 1014.6 1014.3 0.2
05/05:00am 24.5 21.1 15.7 58 5.3 SE 28 39 15 21 1014.9 1014.6 0.2
05/04:30am 24.6 20.8 15.8 58 5.3 SE 30 39 16 21 1014.8 1014.5 0.2
05/04:13am 24.7 21.3 15.9 58 5.4 SE 28 48 15 26 1014.8 1014.5 0.2
05/04:00am 24.4 21.9 16.1 60 5.1 SE 24 35 13 19 1014.9 1014.6 0.2
05/03:30am 24.4 21.6 16.4 61 4.9 SE 26 37 14 20 1015.0 1014.7 0.2
05/03:00am 24.6 21.5 16.6 61 4.9 SE 28 39 15 21 1015.2 1014.9 0.2
05/02:30am 24.5 22.3 17.0 63 4.6 SE 24 33 13 18 1015.3 1015.0 0.2
05/02:00am 24.1 22.7 17.1 65 4.3 SE 20 30 11 16 1015.4 1015.1 0.2
05/01:30am 23.7 22.1 17.4 68 3.9 SE 22 32 12 17 1015.5 1015.2 0.2
05/01:00am 23.9 22.0 17.6 68 3.9 SE 24 32 13 17 1015.7 1015.4 0.2
05/12:30am 23.6 20.8 17.3 67 3.9 SE 28 39 15 21 1015.9 1015.6 0.2
05/12:00am 23.7 20.8 17.0 66 4.1 SE 28 39 15 21 1016.2 1015.9 0.2
 
Date/Time
CST
Temp
°C
App
Temp
°C
Dew
Point
°C
Rel
Hum
%
Delta-T
°C
Wind Press
QNH
hPa
Press
MSL
hPa
Rain since
9am
mm
Dir  Spd
km/h
Gust
km/h
Spd
kts
Gust
kts
04/11:30pm 23.7 22.0 17.2 67 4.0 SSE 22 33 12 18 1016.2 1015.9 0.2
04/11:00pm 23.6 21.2 17.3 67 3.9 SE 26 37 14 20 1016.4 1016.1 0.2
04/10:30pm 23.6 21.2 17.3 67 3.9 SE 26 39 14 21 1016.6 1016.3 0.2
04/10:00pm 23.9 21.1 17.4 67 4.0 SE 28 44 15 24 1016.6 1016.3 0.2
04/09:30pm 24.1 20.5 17.1 65 4.3 SE 32 43 17 23 1016.8 1016.5 0.2
04/09:00pm 24.1 21.0 16.6 63 4.6 SE 28 39 15 21 1016.6 1016.3 0.2
04/08:30pm 24.0 20.5 16.5 63 4.6 SE 30 39 16 21 1016.1 1015.8 0.2
04/08:00pm 24.3 21.9 17.3 65 4.4 SE 26 43 14 23 1015.8 1015.5 0.2
04/07:30pm 24.3 21.0 16.0 60 5.1 SE 28 41 15 22 1015.7 1015.4 0.2
04/07:00pm 24.4 21.1 16.1 60 5.1 SE 28 35 15 19 1015.6 1015.3 0.2
04/06:30pm 24.7 21.5 16.2 59 5.2 SE 28 39 15 21 1015.3 1015.0 0.2
04/06:00pm 24.9 20.9 16.1 58 5.4 SE 32 43 17 23 1015.0 1014.7 0.2
04/05:30pm 25.7 22.6 16.5 56 5.7 SE 28 43 15 23 1014.8 1014.5 0.2
04/05:00pm 25.9 22.0 16.5 56 5.8 SE 32 44 17 24 1014.5 1014.2 0.2
04/04:30pm 26.5 22.1 16.7 55 6.1 SE 35 50 19 27 1014.3 1014.0 0.2
04/04:26pm 26.6 22.8 16.8 55 6.1 SE 32 50 17 27 1014.3 1014.0 0.2
04/04:00pm 27.6 23.0 16.2 49 7.1 SE 35 52 19 28 1014.6 1014.3 0.2
04/03:31pm 27.6 23.7 16.9 52 6.7 SE 33 52 18 28 1014.5 1014.2 0.2
04/03:30pm 27.7 23.4 16.9 51 6.8 SE 35 52 19 28 1014.5 1014.2 0.2
04/03:10pm 27.7 23.7 16.6 50 6.9 SE 33 52 18 28 1014.5 1014.2 0.2
04/03:00pm 28.1 23.7 16.7 50 7.1 SE 35 50 19 27 1014.5 1014.2 0.2
04/02:30pm 28.4 24.6 17.3 51 7.0 SE 33 48 18 26 1014.5 1014.2 0.2
04/02:00pm 28.1 23.2 16.4 49 7.3 ESE 37 46 20 25 1014.8 1014.5 0.2
04/01:30pm 28.2 23.4 16.5 49 7.3 ESE 37 50 20 27 1015.1 1014.8 0.2
04/01:25pm 28.3 24.5 16.6 49 7.3 ESE 32 50 17 27 1015.1 1014.8 0.2
04/01:00pm 28.2 24.2 17.7 53 6.7 ESE 35 48 19 26 1015.6 1015.3 0.2
04/12:30pm 28.3 24.1 18.1 54 6.5 ESE 37 50 20 27 1016.1 1015.8 0.2
04/12:00pm 26.8 23.5 18.4 60 5.4 ESE 33 46 18 25 1016.6 1016.3 0.0
04/11:30am 27.7 24.2 18.7 58 5.8 ESE 35 50 19 27 1016.6 1016.3 0.0
04/11:00am 28.0 24.7 19.2 58 5.7 ESE 35 48 19 26 1016.6 1016.3 0.0
04/10:30am 28.1 26.4 21.4 67 4.5 ESE 32 43 17 23 1016.9 1016.6 0.0
04/10:00am 25.4 24.3 21.1 77 2.8 SE 28 41 15 22 1016.9 1016.6 0.0
04/09:30am 26.1 22.9 19.5 67 4.3 ESE 35 48 19 26 1016.9 1016.6 0.0
04/09:00am 26.6 23.4 19.5 65 4.6 SE 35 52 19 28 1016.7 1016.4 0.0
04/08:55am 26.8 24.1 19.2 63 4.9 SE 32 50 17 27 1016.6 1016.3 0.0
04/08:30am 26.4 24.3 19.8 67 4.3 SE 30 43 16 23 1016.5 1016.2 0.0
04/08:00am 25.8 24.1 19.7 69 4.0 SE 28 37 15 20 1016.2 1015.9 0.0
04/07:30am 25.1 24.6 19.9 73 3.4 SE 22 32 12 17 1015.7 1015.4 0.0
04/07:00am 24.8 23.7 19.4 72 3.5 SE 24 32 13 17 1015.3 1015.0 0.0
04/06:30am 24.8 23.6 19.2 71 3.6 SE 24 33 13 18 1015.3 1015.0 0.0
04/06:00am 24.7 23.3 18.9 70 3.7 SE 24 30 13 16 1015.1 1014.8 0.0
04/05:30am 24.9 23.9 18.8 69 3.9 SE 22 32 12 17 1014.9 1014.6 0.0
04/05:00am 24.8 24.1 18.7 69 3.9 SE 20 28 11 15 1014.9 1014.6 0.0
04/04:30am 24.4 23.8 18.8 71 3.6 SE 20 26 11 14 1014.9 1014.6 0.0
04/04:00am 24.2 23.6 18.8 72 3.4 SE 20 28 11 15 1014.8 1014.5 0.0
04/03:30am 23.9 23.4 19.2 75 3.0 SE 20 26 11 14 1015.0 1014.7 0.0
04/03:00am 24.0 23.8 19.3 75 3.0 SE 19 24 10 13 1015.3 1015.0 0.0
04/02:30am 23.8 24.1 19.5 77 2.8 SE 17 22 9 12 1015.5 1015.2 0.0
04/02:00am 23.9 23.9 19.8 78 2.6 SE 19 24 10 13 1015.9 1015.6 0.0
04/01:30am 24.0 23.9 19.9 78 2.6 SE 20 28 11 15 1016.1 1015.8 0.0
04/01:00am 24.0 23.9 19.9 78 2.6 SE 20 30 11 16 1016.5 1016.2 0.0
04/12:30am 24.3 23.9 20.2 78 2.7 SE 22 32 12 17 1016.8 1016.5 0.0
04/12:00am 24.0 24.2 20.1 79 2.5 SE 19 26 10 14 1016.9 1016.6 0.0
 
Date/Time
CST
Temp
°C
App
Temp
°C
Dew
Point
°C
Rel
Hum
%
Delta-T
°C
Wind Press
QNH
hPa
Press
MSL
hPa
Rain since
9am
mm
Dir  Spd
km/h
Gust
km/h
Spd
kts
Gust
kts
03/11:30pm 24.2 24.3 20.3 79 2.5 SE 20 28 11 15 1017.0 1016.7 0.0
03/11:00pm 24.3 23.7 20.4 79 2.5 SE 24 30 13 16 1017.1 1016.8 0.0
03/10:30pm 24.3 23.9 20.2 78 2.7 SE 22 30 12 16 1017.2 1016.9 0.0

Other formats

Comma delimited format used in spreadsheet applications
http://www.bom.gov.au/fwo/IDD60801/IDD60801.94150.axf

JavaScript Object Notation format (JSON) in row-major order
http://www.bom.gov.au/fwo/IDD60801/IDD60801.94150.json

Data quality

Most of these data are generated automatically and are frequently updated. Quality checks on data are not normally performed. It is possible for incorrect values to appear. Refer to information at About Latest Weather Observations and please check the disclaimer before using these data.